Time;durP1;ratioP1;P1;durP2;ratioP2;P2;SDS_P1;SDS_P2;PMS_P1;PMS_P2;Temp;Humidity;BMP_temperature;BMP_pressure;BME280_temperature;BME280_humidity;BME280_pressure;Samples;Min_cycle;Max_cycle;Signal;HPM_P1;HPM_P2
2021/01/10 00:00:31;;;;;;;16.38;13.73;;;22.60;48.20;;;;;;5068673;28;45347;-51
2021/01/10 00:02:56;;;;;;;18.33;13.80;;;22.50;48.20;;;;;;5069133;28;45387;-53
2021/01/10 00:05:24;;;;;;;18.15;14.07;;;22.50;48.20;;;;;;5051709;28;45349;-51
2021/01/10 00:07:49;;;;;;;18.52;13.52;;;22.50;48.10;;;;;;5069141;28;45241;-52
2021/01/10 00:10:16;;;;;;;16.25;13.68;;;22.50;48.80;;;;;;5052052;28;45394;-50
2021/01/10 00:12:42;;;;;;;18.70;13.82;;;22.50;48.10;;;;;;5052027;28;45295;-50
2021/01/10 00:15:09;;;;;;;17.60;13.77;;;22.50;48.10;;;;;;5069006;28;45391;-50
2021/01/10 00:17:37;;;;;;;16.60;13.65;;;22.50;48.10;;;;;;5069256;28;45271;-50
2021/01/10 00:20:12;;;;;;;15.68;13.05;;;22.50;48.10;;;;;;5068545;28;46657;-48
2021/01/10 00:22:38;;;;;;;17.80;14.27;;;22.40;48.10;;;;;;5053069;28;45428;-49
2021/01/10 00:25:05;;;;;;;17.15;13.93;;;22.40;48.10;;;;;;5052012;28;45345;-49
2021/01/10 00:27:31;;;;;;;17.42;13.73;;;22.40;48.10;;;;;;5052479;28;45638;-50
2021/01/10 00:29:58;;;;;;;16.35;12.95;;;22.40;48.10;;;;;;5051598;28;45332;-49
2021/01/10 00:32:23;;;;;;;16.00;12.85;;;22.40;48.00;;;;;;5051031;28;45391;-49
2021/01/10 00:34:49;;;;;;;16.90;13.38;;;22.40;48.00;;;;;;5051697;28;45348;-49
2021/01/10 00:37:20;;;;;;;16.33;13.90;;;22.40;48.10;;;;;;5052175;28;45514;-48
2021/01/10 00:39:47;;;;;;;16.85;13.00;;;22.30;48.00;;;;;;5069451;28;45607;-49
2021/01/10 00:42:15;;;;;;;16.73;13.35;;;22.30;48.00;;;;;;5051578;28;45256;-48
2021/01/10 00:44:42;;;;;;;17.08;13.05;;;22.30;48.00;;;;;;5052029;28;45295;-48
2021/01/10 00:47:08;;;;;;;15.35;13.18;;;22.30;48.00;;;;;;5051804;28;45471;-49
2021/01/10 00:49:34;;;;;;;15.43;12.55;;;22.30;48.00;;;;;;5068269;28;46253;-49
2021/01/10 00:51:59;;;;;;;14.77;12.65;;;22.30;48.00;;;;;;5051439;28;45336;-49
2021/01/10 00:54:26;;;;;;;16.38;12.95;;;22.30;48.00;;;;;;5051333;28;45352;-49
2021/01/10 00:56:52;;;;;;;14.02;12.50;;;22.30;48.00;;;;;;5068385;28;45633;-48
2021/01/10 00:59:17;;;;;;;16.95;13.00;;;22.20;48.00;;;;;;5051088;28;45520;-50
2021/01/10 01:01:43;;;;;;;15.95;12.43;;;22.20;47.90;;;;;;5051089;28;45380;-49
2021/01/10 01:04:09;;;;;;;16.17;11.95;;;22.20;47.90;;;;;;5051251;28;45414;-49
2021/01/10 01:06:34;;;;;;;15.45;12.90;;;22.20;47.90;;;;;;5051679;28;45327;-48
2021/01/10 01:09:00;;;;;;;14.80;11.75;;;22.20;47.90;;;;;;5067734;28;45455;-48
2021/01/10 01:11:28;;;;;;;13.93;11.18;;;22.20;47.90;;;;;;5050873;28;45337;-49
2021/01/10 01:13:53;;;;;;;15.45;12.15;;;22.20;47.90;;;;;;5051271;28;45302;-49
2021/01/10 01:16:19;;;;;;;15.93;12.45;;;22.20;48.10;;;;;;5051047;28;45165;-49
2021/01/10 01:18:45;;;;;;;14.57;11.93;;;22.20;47.90;;;;;;5068330;28;45476;-48
2021/01/10 01:21:14;;;;;;;14.07;11.63;;;22.20;47.90;;;;;;5050756;28;45281;-49
2021/01/10 01:23:40;;;;;;;13.45;11.70;;;22.20;47.90;;;;;;5067813;28;45312;-49
2021/01/10 01:26:06;;;;;;;16.25;12.55;;;22.10;47.80;;;;;;5051274;28;45465;-49
2021/01/10 01:28:31;;;;;;;15.02;12.63;;;22.20;47.90;;;;;;5050558;28;45313;-49
2021/01/10 01:30:57;;;;;;;16.15;12.20;;;22.20;47.80;;;;;;5068711;28;45310;-49
2021/01/10 01:33:22;;;;;;;15.93;11.98;;;22.10;47.80;;;;;;5050320;28;45325;-48
2021/01/10 01:35:48;;;;;;;14.35;12.18;;;22.10;47.80;;;;;;5050211;28;45644;-49
2021/01/10 01:38:14;;;;;;;14.05;11.88;;;22.10;47.80;;;;;;5067693;28;45284;-49
2021/01/10 01:40:40;;;;;;;15.85;12.25;;;22.00;47.70;;;;;;5067444;28;45447;-51
2021/01/10 01:43:09;;;;;;;14.38;11.57;;;22.00;48.30;;;;;;5067478;28;45382;-49
2021/01/10 01:45:34;;;;;;;13.32;10.85;;;22.00;47.80;;;;;;5067832;28;45319;-49
2021/01/10 01:48:01;;;;;;;15.52;13.00;;;22.00;47.70;;;;;;5067052;28;46229;-49
2021/01/10 01:50:27;;;;;;;12.98;11.57;;;22.00;47.80;;;;;;5067321;28;45349;-50
2021/01/10 01:52:53;;;;;;;14.57;11.57;;;22.00;47.70;;;;;;5067258;28;45312;-50
2021/01/10 01:55:19;;;;;;;13.65;10.98;;;22.00;47.80;;;;;;5067633;28;45325;-50
2021/01/10 01:57:44;;;;;;;14.57;11.57;;;22.00;47.70;;;;;;5066964;28;45262;-49
2021/01/10 02:00:10;;;;;;;14.15;10.70;;;22.00;47.70;;;;;;5066835;28;45282;-50
2021/01/10 02:02:36;;;;;;;12.90;10.98;;;22.00;47.80;;;;;;5050379;28;45292;-50
2021/01/10 02:05:07;;;;;;;14.50;11.90;;;22.00;47.70;;;;;;5050883;28;45559;-50
2021/01/10 02:07:35;;;;;;;13.23;10.93;;;22.00;47.70;;;;;;5066704;28;45718;-48
2021/01/10 02:10:10;;;;;;;12.48;10.73;;;22.00;47.70;;;;;;5068209;28;45278;-50
2021/01/10 02:12:37;;;;;;;14.73;11.45;;;22.00;47.70;;;;;;5067123;28;45389;-49
2021/01/10 02:15:11;;;;;;;14.95;11.80;;;21.90;47.70;;;;;;5050986;28;45348;-50
2021/01/10 02:17:37;;;;;;;14.95;11.65;;;21.90;47.60;;;;;;5049894;28;45372;-49
2021/01/10 02:20:36;;;;;;;13.35;10.90;;;21.90;47.60;;;;;;5050012;28;45325;-49
2021/01/10 02:23:03;;;;;;;14.20;11.98;;;21.90;47.60;;;;;;5034773;28;45265;-49
2021/01/10 02:25:29;;;;;;;12.45;10.10;;;21.90;47.70;;;;;;5068427;28;45168;-49
2021/01/10 02:27:55;;;;;;;14.65;11.13;;;21.90;47.70;;;;;;5066404;28;45244;-49
2021/01/10 02:30:20;;;;;;;13.43;11.43;;;21.90;47.70;;;;;;5049899;28;45207;-49
2021/01/10 02:32:48;;;;;;;12.40;10.50;;;21.80;47.60;;;;;;5049241;28;45841;-49
2021/01/10 02:35:15;;;;;;;13.50;11.18;;;21.80;47.60;;;;;;5050564;28;45425;-49
2021/01/10 02:37:53;;;;;;;13.40;11.63;;;21.80;47.60;;;;;;5049870;28;45429;-49
2021/01/10 02:40:31;;;;;;;16.00;12.02;;;21.80;47.60;;;;;;5067611;28;45508;-49
2021/01/10 02:43:09;;;;;;;12.48;10.88;;;21.80;47.60;;;;;;5066902;28;45550;-49
2021/01/10 02:45:35;;;;;;;13.32;10.68;;;21.80;47.60;;;;;;5067088;28;45602;-49
2021/01/10 02:48:01;;;;;;;13.85;10.65;;;21.80;47.60;;;;;;5049374;28;45991;-49
2021/01/10 02:50:27;;;;;;;12.60;10.57;;;21.80;48.20;;;;;;5049604;28;45613;-48
2021/01/10 02:52:52;;;;;;;13.50;10.38;;;21.80;47.60;;;;;;5032966;28;45305;-48
2021/01/10 02:55:18;;;;;;;13.40;11.27;;;21.80;47.60;;;;;;5050172;28;45288;-50
2021/01/10 02:57:51;;;;;;;14.27;11.43;;;21.80;47.60;;;;;;5049299;28;46258;-50
2021/01/10 03:00:17;;;;;;;12.70;10.07;;;21.80;47.60;;;;;;5029895;28;45355;-48
2021/01/10 03:02:43;;;;;;;14.20;10.95;;;21.80;47.60;;;;;;5046205;28;45351;-49
2021/01/10 03:05:09;;;;;;;14.15;10.80;;;21.70;47.60;;;;;;5046472;28;45303;-49
2021/01/10 03:07:35;;;;;;;15.52;12.20;;;21.80;47.60;;;;;;5046006;28;47223;-49
2021/01/10 03:10:03;;;;;;;13.98;10.93;;;21.80;47.50;;;;;;5045945;28;45154;-49
2021/01/10 03:12:28;;;;;;;14.13;11.27;;;21.90;47.40;;;;;;5045820;28;45304;-49
2021/01/10 03:14:55;;;;;;;13.00;11.15;;;22.00;47.30;;;;;;5046525;28;45317;-49
2021/01/10 03:17:34;;;;;;;14.10;11.40;;;22.10;47.20;;;;;;5045793;28;46222;-49
2021/01/10 03:20:00;;;;;;;12.13;9.23;;;22.10;47.00;;;;;;5045766;28;45284;-49
2021/01/10 03:22:27;;;;;;;12.63;10.25;;;22.10;47.00;;;;;;5046010;28;45328;-48
2021/01/10 03:24:53;;;;;;;13.30;10.88;;;22.20;47.10;;;;;;5046793;28;45511;-49
2021/01/10 03:27:19;;;;;;;14.35;11.27;;;22.20;47.00;;;;;;5045743;28;46503;-48
2021/01/10 03:29:45;;;;;;;12.13;9.73;;;22.20;47.00;;;;;;5045445;28;45356;-48
2021/01/10 03:32:10;;;;;;;13.10;10.27;;;22.30;47.10;;;;;;5045603;28;45337;-49
2021/01/10 03:34:36;;;;;;;11.68;9.82;;;22.30;47.10;;;;;;5029526;28;45585;-50
2021/01/10 03:37:02;;;;;;;14.25;10.48;;;22.40;47.00;;;;;;5045489;28;45407;-49
2021/01/10 03:39:28;;;;;;;12.48;10.48;;;22.40;46.90;;;;;;5045784;28;45423;-49
2021/01/10 03:41:53;;;;;;;12.18;9.80;;;22.40;46.90;;;;;;5048652;28;45437;-49
2021/01/10 03:44:19;;;;;;;12.48;9.77;;;22.40;46.80;;;;;;5049449;28;45479;-48
2021/01/10 03:46:45;;;;;;;11.38;9.43;;;22.50;46.80;;;;;;5048958;28;45332;-49
2021/01/10 03:49:10;;;;;;;11.52;9.00;;;22.50;46.80;;;;;;5048970;28;45298;-49
2021/01/10 03:51:36;;;;;;;12.90;9.93;;;22.50;46.80;;;;;;5048913;28;45502;-48
2021/01/10 03:54:02;;;;;;;13.95;9.63;;;22.50;46.70;;;;;;5049191;28;45385;-50
2021/01/10 03:56:28;;;;;;;12.45;9.70;;;22.60;46.70;;;;;;5048709;28;45205;-49
2021/01/10 03:58:53;;;;;;;13.00;9.00;;;22.60;46.70;;;;;;5057945;28;45411;-48
2021/01/10 04:01:19;;;;;;;11.45;9.05;;;22.60;46.60;;;;;;5068908;28;45299;-50
2021/01/10 04:03:45;;;;;;;11.50;9.05;;;22.60;46.50;;;;;;5069504;28;45654;-49
2021/01/10 04:06:10;;;;;;;12.32;9.63;;;22.60;46.50;;;;;;5068962;28;45538;-48
2021/01/10 04:08:36;;;;;;;12.15;9.70;;;22.70;46.50;;;;;;5068726;28;45347;-50
2021/01/10 04:11:02;;;;;;;11.35;8.82;;;22.70;46.50;;;;;;5069081;28;45440;-50
2021/01/10 04:13:27;;;;;;;12.48;9.23;;;22.70;46.30;;;;;;5069366;28;45408;-50
2021/01/10 04:15:53;;;;;;;12.70;9.57;;;22.70;46.50;;;;;;5068652;28;46221;-50
2021/01/10 04:18:19;;;;;;;11.85;9.90;;;22.70;46.50;;;;;;5068783;28;45451;-50
2021/01/10 04:20:44;;;;;;;11.80;8.93;;;22.80;46.50;;;;;;5068846;28;45230;-50
2021/01/10 04:23:10;;;;;;;11.40;8.93;;;22.70;46.40;;;;;;5069297;28;45325;-52
2021/01/10 04:25:36;;;;;;;12.25;9.82;;;22.70;46.30;;;;;;5068451;28;46413;-51
2021/01/10 04:28:01;;;;;;;13.05;9.07;;;22.80;46.30;;;;;;5068836;28;45194;-51
2021/01/10 04:30:27;;;;;;;11.52;8.80;;;22.80;46.20;;;;;;5068827;28;45435;-50
2021/01/10 04:32:53;;;;;;;9.70;8.18;;;22.80;46.30;;;;;;5068250;28;45242;-50
2021/01/10 04:35:19;;;;;;;11.82;8.82;;;22.80;46.20;;;;;;5068416;28;45534;-50
2021/01/10 04:37:45;;;;;;;11.10;8.40;;;22.80;46.20;;;;;;5068387;28;45343;-49
2021/01/10 04:40:11;;;;;;;11.07;8.35;;;22.80;46.20;;;;;;5068441;28;45390;-50
2021/01/10 04:42:37;;;;;;;10.98;8.57;;;22.90;46.10;;;;;;5068892;28;45530;-50
2021/01/10 04:45:03;;;;;;;11.90;9.27;;;22.80;46.00;;;;;;5068214;28;45580;-50
2021/01/10 04:47:28;;;;;;;10.68;8.05;;;22.80;45.90;;;;;;5068128;28;45418;-50
2021/01/10 04:49:54;;;;;;;10.98;8.90;;;22.90;46.00;;;;;;5068286;28;45651;-49
2021/01/10 04:52:20;;;;;;;10.85;8.35;;;22.90;46.00;;;;;;5068711;28;45345;-49
2021/01/10 04:54:46;;;;;;;10.27;8.10;;;22.90;46.00;;;;;;5068202;28;45804;-49
2021/01/10 04:57:12;;;;;;;9.98;7.63;;;22.90;46.00;;;;;;5068039;28;45168;-50
2021/01/10 04:59:41;;;;;;;11.27;8.23;;;22.90;45.90;;;;;;5068203;28;45168;-50
2021/01/10 05:02:08;;;;;;;10.02;8.43;;;22.90;45.90;;;;;;5051017;28;45554;-49
2021/01/10 05:04:33;;;;;;;12.48;8.85;;;22.90;45.90;;;;;;5047388;28;45441;-49
2021/01/10 05:06:59;;;;;;;9.95;8.02;;;22.90;45.80;;;;;;5047720;28;45353;-49
2021/01/10 05:09:25;;;;;;;10.10;7.68;;;22.90;45.90;;;;;;5047778;28;45314;-49
2021/01/10 05:11:51;;;;;;;9.65;7.38;;;22.90;45.80;;;;;;5048342;28;45198;-50
2021/01/10 05:14:17;;;;;;;10.68;8.27;;;22.90;45.80;;;;;;5047360;28;45517;-49
2021/01/10 05:16:42;;;;;;;9.93;7.90;;;23.00;45.80;;;;;;5047864;28;45306;-49
2021/01/10 05:19:08;;;;;;;10.23;8.32;;;23.00;45.70;;;;;;5047622;28;45226;-49
2021/01/10 05:21:34;;;;;;;9.30;7.28;;;23.00;46.20;;;;;;5047870;28;45378;-49
2021/01/10 05:23:59;;;;;;;10.50;8.10;;;23.00;45.60;;;;;;5047622;28;46556;-49
2021/01/10 05:26:32;;;;;;;9.98;7.90;;;23.10;45.70;;;;;;5047518;28;45377;-49
2021/01/10 05:29:03;;;;;;;9.73;7.28;;;23.10;45.60;;;;;;5047436;28;45224;-49
2021/01/10 05:31:33;;;;;;;7.85;6.78;;;23.10;45.60;;;;;;5047965;28;45284;-49
2021/01/10 05:33:59;;;;;;;9.88;7.13;;;23.20;45.60;;;;;;5046397;28;46113;-49
2021/01/10 05:36:31;;;;;;;8.63;7.15;;;23.10;45.50;;;;;;5047076;28;45289;-49
2021/01/10 05:38:58;;;;;;;8.85;7.07;;;23.10;45.50;;;;;;5048696;28;45199;-50
2021/01/10 05:41:25;;;;;;;8.45;7.22;;;23.20;45.50;;;;;;5047755;28;45361;-49
2021/01/10 05:43:59;;;;;;;9.32;7.32;;;23.10;45.40;;;;;;5047121;28;46321;-49
2021/01/10 05:46:26;;;;;;;9.68;7.03;;;23.20;45.40;;;;;;5048345;28;45387;-49
2021/01/10 05:48:52;;;;;;;8.10;6.53;;;23.20;45.40;;;;;;5047297;28;45514;-49
2021/01/10 05:51:18;;;;;;;10.20;7.05;;;23.20;45.40;;;;;;5047605;28;45361;-49
2021/01/10 05:53:44;;;;;;;8.73;6.35;;;23.20;45.40;;;;;;5046550;28;45634;-49
2021/01/10 05:56:10;;;;;;;9.45;6.90;;;23.20;45.40;;;;;;5046844;28;45329;-49
2021/01/10 05:58:35;;;;;;;9.60;6.97;;;23.20;45.30;;;;;;5053257;28;45424;-49
2021/01/10 06:01:11;;;;;;;7.85;6.55;;;23.20;45.30;;;;;;5067466;28;45357;-49
2021/01/10 06:03:37;;;;;;;10.40;7.38;;;23.20;45.20;;;;;;5066447;28;45339;-49
2021/01/10 06:06:06;;;;;;;9.07;7.22;;;23.20;45.30;;;;;;5067136;28;45192;-49
2021/01/10 06:08:33;;;;;;;8.30;7.22;;;23.20;45.80;;;;;;5066943;28;45411;-49
2021/01/10 06:11:27;;;;;;;9.07;7.28;;;23.20;45.30;;;;;;5067923;28;45570;-50
2021/01/10 06:13:58;;;;;;;8.50;6.37;;;23.20;45.20;;;;;;5068157;28;45323;-48
2021/01/10 06:16:28;;;;;;;7.43;6.28;;;23.20;45.20;;;;;;5066728;28;45368;-49
2021/01/10 06:18:56;;;;;;;8.05;6.43;;;23.20;45.20;;;;;;5050713;28;45382;-49
2021/01/10 06:21:23;;;;;;;10.30;5.97;;;23.30;45.20;;;;;;5067462;28;45413;-49
2021/01/10 06:23:51;;;;;;;8.77;6.60;;;23.30;45.10;;;;;;5066684;28;45498;-49
2021/01/10 06:26:17;;;;;;;8.18;6.60;;;23.40;45.10;;;;;;5066654;28;45283;-49
2021/01/10 06:28:53;;;;;;;8.70;7.03;;;23.40;45.10;;;;;;5066888;28;45376;-50
2021/01/10 06:31:38;;;;;;;7.30;6.18;;;23.40;45.00;;;;;;5067379;28;45257;-49
2021/01/10 06:34:07;;;;;;;8.23;6.57;;;23.40;44.90;;;;;;5058745;28;45412;-49
2021/01/10 06:36:38;;;;;;;7.93;6.40;;;23.40;45.00;;;;;;5065123;28;45434;-49
2021/01/10 06:39:07;;;;;;;7.32;5.78;;;23.50;45.00;;;;;;5065225;28;45429;-49
2021/01/10 06:41:43;;;;;;;8.10;6.70;;;23.50;45.00;;;;;;5065552;28;45338;-49
2021/01/10 06:44:09;;;;;;;7.95;6.35;;;23.50;45.00;;;;;;5063689;28;46332;-49
2021/01/10 06:46:35;;;;;;;9.15;7.07;;;23.50;45.00;;;;;;5065221;28;45415;-51
2021/01/10 06:49:01;;;;;;;8.85;6.30;;;23.50;44.90;;;;;;5048236;28;45663;-49
2021/01/10 06:51:28;;;;;;;7.88;6.57;;;23.50;44.90;;;;;;5065629;28;45573;-50
2021/01/10 06:53:55;;;;;;;7.55;6.35;;;23.60;44.90;;;;;;5064796;28;45284;-50
2021/01/10 06:56:20;;;;;;;7.57;5.68;;;23.60;44.90;;;;;;5044560;28;45637;-50
2021/01/10 06:59:11;;;;;;;7.88;5.90;;;23.70;45.00;;;;;;5048525;28;45289;-50
2021/01/10 07:01:58;;;;;;;7.22;5.75;;;23.70;44.90;;;;;;5064192;28;45399;-50
2021/01/10 07:04:47;;;;;;;8.40;6.20;;;23.70;44.90;;;;;;5064481;28;46252;-50
2021/01/10 07:07:41;;;;;;;7.43;5.68;;;23.60;44.80;;;;;;5058303;28;45404;-50
2021/01/10 07:10:09;;;;;;;6.35;5.00;;;23.60;44.80;;;;;;5062869;28;45433;-50
2021/01/10 07:12:34;;;;;;;7.75;5.93;;;23.60;44.90;;;;;;5064935;28;45361;-50
2021/01/10 07:15:18;;;;;;;8.23;6.22;;;23.60;44.90;;;;;;5064980;28;45375;-50
2021/01/10 07:18:10;;;;;;;7.80;5.90;;;23.60;44.80;;;;;;5067900;28;45352;-50
2021/01/10 07:20:39;;;;;;;8.32;6.15;;;23.60;44.80;;;;;;5065941;28;45613;-50
2021/01/10 07:23:27;;;;;;;8.50;6.60;;;23.60;44.90;;;;;;5065599;28;45392;-50
2021/01/10 07:25:53;;;;;;;8.10;6.07;;;23.60;44.80;;;;;;5069383;28;45522;-50
2021/01/10 07:28:39;;;;;;;7.38;5.70;;;23.60;44.90;;;;;;5050992;28;45307;-50
2021/01/10 07:31:15;;;;;;;8.02;5.10;;;23.60;44.80;;;;;;5067833;28;45644;-50
2021/01/10 07:33:41;;;;;;;7.18;5.78;;;23.70;44.80;;;;;;5052566;28;45290;-50
2021/01/10 07:36:07;;;;;;;7.72;5.95;;;23.70;44.80;;;;;;5067780;28;46403;-50
2021/01/10 07:38:34;;;;;;;8.07;6.28;;;23.70;44.80;;;;;;5067512;28;45529;-50
2021/01/10 07:41:25;;;;;;;7.55;6.15;;;23.70;44.80;;;;;;5069280;28;45482;-50
2021/01/10 07:43:53;;;;;;;7.80;6.18;;;23.70;44.70;;;;;;5066050;28;45586;-50
2021/01/10 07:46:54;;;;;;;7.72;5.80;;;23.70;44.80;;;;;;5068733;28;45557;-50
2021/01/10 07:49:24;;;;;;;8.27;6.57;;;23.70;44.70;;;;;;5065397;28;45271;-50
2021/01/10 07:51:50;;;;;;;8.77;6.53;;;23.70;44.80;;;;;;5065453;28;45459;-50
2021/01/10 07:54:15;;;;;;;10.02;6.60;;;23.70;44.80;;;;;;5049450;28;45419;-50
2021/01/10 07:56:41;;;;;;;8.45;5.63;;;23.70;44.80;;;;;;5067622;28;45384;-50
2021/01/10 07:59:16;;;;;;;7.65;5.55;;;23.70;44.70;;;;;;5050600;28;45300;-51
2021/01/10 08:01:52;;;;;;;7.97;5.93;;;23.70;44.70;;;;;;5067643;28;45485;-50
2021/01/10 08:04:31;;;;;;;8.02;5.93;;;23.70;44.70;;;;;;5051416;28;45591;-51
2021/01/10 08:06:57;;;;;;;8.43;6.05;;;23.70;44.70;;;;;;5066069;28;45232;-50
2021/01/10 08:09:25;;;;;;;7.85;6.07;;;23.70;44.80;;;;;;5064427;28;45479;-50
2021/01/10 08:11:54;;;;;;;10.15;6.55;;;23.60;44.90;;;;;;5065710;28;45366;-53
2021/01/10 08:14:20;;;;;;;7.82;6.20;;;23.70;44.90;;;;;;5067302;28;45422;-53
2021/01/10 08:16:45;;;;;;;7.75;5.43;;;23.70;44.90;;;;;;5047503;28;46465;-50
2021/01/10 08:19:11;;;;;;;9.05;5.85;;;23.70;45.20;;;;;;5063821;28;45479;-50
2021/01/10 08:21:37;;;;;;;8.45;5.88;;;23.80;45.00;;;;;;5049524;28;45372;-51
2021/01/10 08:24:05;;;;;;;6.75;5.05;;;23.90;44.80;;;;;;5063919;28;46313;-51
2021/01/10 08:26:31;;;;;;;7.95;5.32;;;24.00;44.70;;;;;;5049028;28;46158;-50
2021/01/10 08:28:58;;;;;;;6.55;5.30;;;24.10;44.60;;;;;;5046068;28;45487;-50
2021/01/10 08:31:27;;;;;;;6.90;5.13;;;24.20;44.60;;;;;;5049407;28;45306;-51
2021/01/10 08:34:08;;;;;;;6.85;5.15;;;24.20;44.50;;;;;;5048263;28;45572;-51
2021/01/10 08:36:35;;;;;;;6.45;4.70;;;24.30;44.50;;;;;;5063823;28;45444;-49
2021/01/10 08:39:02;;;;;;;6.70;4.20;;;24.30;44.40;;;;;;5049307;28;45244;-50
2021/01/10 08:41:34;;;;;;;6.10;4.47;;;24.40;44.40;;;;;;5068151;28;45327;-50
2021/01/10 08:44:03;;;;;;;6.97;5.07;;;24.50;44.50;;;;;;5060623;28;45524;-51
2021/01/10 08:46:32;;;;;;;7.85;4.53;;;24.50;44.30;;;;;;5066869;28;46185;-52
2021/01/10 08:48:58;;;;;;;7.15;4.85;;;24.50;44.30;;;;;;5057512;28;45562;-54
2021/01/10 08:51:36;;;;;;;7.60;5.15;;;24.50;44.30;;;;;;5032023;28;45404;-57
2021/01/10 08:54:21;;;;;;;6.50;4.82;;;24.60;44.30;;;;;;5059910;28;45559;-54
2021/01/10 08:56:51;;;;;;;12.95;8.82;;;24.60;44.20;;;;;;5047843;28;45351;-53
2021/01/10 08:59:20;;;;;;;14.77;10.80;;;24.60;43.10;;;;;;5059769;28;45432;-55
2021/01/10 09:01:46;;;;;;;13.77;10.45;;;24.40;42.30;;;;;;5051752;28;45329;-52
2021/01/10 09:04:13;;;;;;;17.67;12.05;;;24.20;42.40;;;;;;5051684;28;45389;-51
2021/01/10 09:06:47;;;;;;;16.83;11.98;;;24.30;42.50;;;;;;5050593;28;46155;-50
2021/01/10 09:09:31;;;;;;;17.70;12.75;;;24.30;42.10;;;;;;5049170;28;45479;-51
2021/01/10 09:12:09;;;;;;;19.15;13.45;;;24.30;41.70;;;;;;5062450;28;45801;-49
2021/01/10 09:14:48;;;;;;;20.90;13.40;;;24.30;41.70;;;;;;5055349;28;45614;-53
2021/01/10 09:17:14;;;;;;;22.33;12.73;;;24.30;41.80;;;;;;5046874;28;46622;-51
2021/01/10 09:19:40;;;;;;;21.42;13.60;;;24.20;42.10;;;;;;5047368;28;45400;-52
2021/01/10 09:22:06;;;;;;;22.17;14.52;;;24.30;42.10;;;;;;5050698;28;45325;-52
2021/01/10 09:24:32;;;;;;;18.23;12.30;;;24.20;42.20;;;;;;5066153;28;45339;-51
2021/01/10 09:27:13;;;;;;;19.00;11.38;;;24.30;42.30;;;;;;5068183;28;45312;-53
2021/01/10 09:29:40;;;;;;;20.80;12.43;;;24.40;42.20;;;;;;5060801;28;45597;-53
2021/01/10 09:32:06;;;;;;;18.42;11.20;;;24.40;42.20;;;;;;5066695;28;45405;-54
2021/01/10 09:34:31;;;;;;;18.83;11.25;;;24.40;42.30;;;;;;5047229;28;45325;-52
2021/01/10 09:37:04;;;;;;;17.00;11.63;;;24.40;42.30;;;;;;5035356;28;46160;-52
2021/01/10 09:39:41;;;;;;;15.68;9.52;;;24.50;42.40;;;;;;5049036;28;45414;-52
2021/01/10 09:42:06;;;;;;;15.82;11.07;;;24.50;42.50;;;;;;5045775;28;45316;-51
2021/01/10 09:44:32;;;;;;;17.17;10.00;;;24.50;42.60;;;;;;5065360;28;45426;-51
2021/01/10 09:46:59;;;;;;;16.40;10.88;;;24.50;42.60;;;;;;5041420;28;45630;-51
2021/01/10 09:49:30;;;;;;;15.00;10.40;;;24.50;42.70;;;;;;5066813;28;45374;-50
2021/01/10 09:52:06;;;;;;;15.52;9.90;;;24.50;42.70;;;;;;5065952;28;45221;-51
2021/01/10 09:54:36;;;;;;;15.45;9.25;;;24.50;42.80;;;;;;5064280;28;45360;-50
2021/01/10 09:57:03;;;;;;;17.98;10.23;;;24.60;42.80;;;;;;5066869;28;46164;-51
2021/01/10 09:59:45;;;;;;;15.07;9.48;;;24.60;42.90;;;;;;5062502;28;45492;-52
2021/01/10 10:02:35;;;;;;;13.35;9.75;;;24.70;42.90;;;;;;5065883;28;45470;-52
2021/01/10 10:05:19;;;;;;;13.88;9.18;;;24.70;42.90;;;;;;5067485;28;45371;-53
2021/01/10 10:07:49;;;;;;;12.35;8.55;;;24.70;43.00;;;;;;5049952;28;46213;-51
2021/01/10 10:10:21;;;;;;;12.75;8.57;;;24.70;43.00;;;;;;5050302;28;45398;-52
2021/01/10 10:13:07;;;;;;;13.90;9.40;;;24.70;43.10;;;;;;5054715;28;45515;-51
2021/01/10 10:15:39;;;;;;;13.88;9.43;;;24.80;43.10;;;;;;5047021;28;45674;-52
2021/01/10 10:18:05;;;;;;;14.35;9.27;;;24.80;43.10;;;;;;5046016;28;45455;-50
2021/01/10 10:20:31;;;;;;;12.20;8.60;;;24.80;43.10;;;;;;5054788;28;45486;-51
2021/01/10 10:23:07;;;;;;;12.80;8.50;;;24.80;43.10;;;;;;5064524;28;45442;-53
2021/01/10 10:25:33;;;;;;;23.02;15.90;;;24.80;43.10;;;;;;5097955;27;45294;-54
2021/01/10 10:28:00;;;;;;;22.75;15.77;;;24.50;41.00;;;;;;5064998;28;45319;-53
2021/01/10 10:30:26;;;;;;;21.48;13.30;;;24.30;41.10;;;;;;5047348;28;45498;-53
2021/01/10 10:32:52;;;;;;;19.85;13.70;;;24.40;41.80;;;;;;5044873;28;45342;-54
2021/01/10 10:35:17;;;;;;;23.10;13.68;;;24.50;41.80;;;;;;5060322;28;46291;-52
2021/01/10 10:37:43;;;;;;;17.80;13.32;;;24.60;41.90;;;;;;5046812;28;45419;-52
2021/01/10 10:40:10;;;;;;;21.50;13.63;;;24.60;41.90;;;;;;5047956;28;45439;-52
2021/01/10 10:42:35;;;;;;;19.75;13.63;;;24.70;42.00;;;;;;5047605;28;45562;-51
2021/01/10 10:45:01;;;;;;;20.92;13.05;;;24.60;42.00;;;;;;5048299;28;45464;-51
2021/01/10 10:47:27;;;;;;;15.07;11.93;;;24.60;42.10;;;;;;5064529;28;45495;-53
2021/01/10 10:49:52;;;;;;;18.05;12.70;;;24.60;42.20;;;;;;5047930;28;45464;-52
2021/01/10 10:52:18;;;;;;;19.30;12.40;;;24.70;42.30;;;;;;5051634;28;45451;-54
2021/01/10 10:54:44;;;;;;;16.23;11.85;;;24.70;42.30;;;;;;5052240;28;46511;-51
2021/01/10 10:57:10;;;;;;;18.92;11.85;;;24.70;42.30;;;;;;5051210;28;45401;-51
2021/01/10 10:59:37;;;;;;;15.93;10.45;;;24.80;42.30;;;;;;5051438;28;45372;-51
2021/01/10 11:02:03;;;;;;;28.05;19.33;;;24.80;42.40;;;;;;5068552;28;45414;-53
2021/01/10 11:04:29;;;;;;;31.52;21.35;;;24.80;41.80;;;;;;5052061;28;45634;-51
2021/01/10 11:06:54;;;;;;;33.58;22.98;;;24.50;41.60;;;;;;5049334;28;46111;-52
2021/01/10 11:09:20;;;;;;;33.75;22.65;;;24.50;41.80;;;;;;5063780;28;45407;-53
2021/01/10 11:11:47;;;;;;;36.03;23.63;;;24.40;41.90;;;;;;5051919;28;45309;-53
2021/01/10 11:14:14;;;;;;;35.08;25.67;;;24.30;42.20;;;;;;5069944;28;45529;-53
2021/01/10 11:16:43;;;;;;;32.85;24.15;;;24.30;42.50;;;;;;5069280;28;45510;-53
2021/01/10 11:19:09;;;;;;;35.28;23.88;;;24.30;42.80;;;;;;5062544;28;45439;-52
2021/01/10 11:21:36;;;;;;;32.25;23.20;;;24.20;43.00;;;;;;5065133;28;45447;-52
2021/01/10 11:24:03;;;;;;;34.40;22.08;;;24.20;43.00;;;;;;5063738;28;45604;-52
2021/01/10 11:26:29;;;;;;;33.88;21.92;;;24.30;43.10;;;;;;5050932;28;45588;-51
2021/01/10 11:28:55;;;;;;;32.15;21.70;;;24.20;43.20;;;;;;5055373;28;45347;-51
2021/01/10 11:31:21;;;;;;;30.73;23.05;;;24.20;43.20;;;;;;5031576;28;45345;-51
2021/01/10 11:33:47;;;;;;;27.83;20.25;;;24.20;43.40;;;;;;5026554;28;45664;-51
2021/01/10 11:36:13;;;;;;;32.38;21.17;;;24.20;43.40;;;;;;5026942;28;45878;-50
2021/01/10 11:38:39;;;;;;;30.35;20.10;;;24.20;43.40;;;;;;5009984;28;45477;-52
2021/01/10 11:41:06;;;;;;;35.00;20.65;;;24.30;43.40;;;;;;5019309;28;45329;-52
2021/01/10 11:43:32;;;;;;;37.00;23.27;;;24.30;43.20;;;;;;5027185;28;45735;-51
2021/01/10 11:45:58;;;;;;;40.35;22.00;;;24.30;43.10;;;;;;5026292;28;45352;-51
2021/01/10 11:48:24;;;;;;;49.53;28.88;;;24.30;43.00;;;;;;5040290;28;45753;-52
2021/01/10 11:50:49;;;;;;;52.65;28.60;;;24.20;42.40;;;;;;5025394;28;45661;-52
2021/01/10 11:53:15;;;;;;;79.75;38.72;;;24.30;42.70;;;;;;5029335;28;45373;-50
2021/01/10 11:55:41;;;;;;;84.97;42.13;;;24.30;42.60;;;;;;5030136;28;45515;-52
2021/01/10 11:58:06;;;;;;;95.88;45.13;;;24.30;42.50;;;;;;5028667;28;45426;-53
2021/01/10 12:00:32;;;;;;;93.55;45.33;;;24.30;42.40;;;;;;5047483;28;45419;-52
2021/01/10 12:02:58;;;;;;;113.85;53.38;;;24.20;42.40;;;;;;5031109;28;45445;-52
2021/01/10 12:05:23;;;;;;;118.78;52.53;;;24.20;42.50;;;;;;5046677;28;45517;-51
2021/01/10 12:07:49;;;;;;;122.03;57.17;;;24.20;42.70;;;;;;5030464;28;45425;-51
2021/01/10 12:10:15;;;;;;;151.88;70.60;;;24.10;42.70;;;;;;5048958;28;45368;-51
2021/01/10 12:12:40;;;;;;;175.10;79.25;;;24.20;43.00;;;;;;5052286;28;45305;-50
2021/01/10 12:15:06;;;;;;;185.73;85.85;;;24.20;43.20;;;;;;5051107;28;45397;-50
2021/01/10 12:17:32;;;;;;;185.98;87.65;;;24.10;43.30;;;;;;5068265;28;45464;-53
2021/01/10 12:19:58;;;;;;;183.77;86.97;;;24.10;43.40;;;;;;5066777;28;45220;-53
2021/01/10 12:22:23;;;;;;;193.68;99.57;;;24.00;43.40;;;;;;5064204;28;45489;-53
2021/01/10 12:24:49;;;;;;;133.10;77.43;;;24.00;43.10;;;;;;5068276;28;46188;-53
2021/01/10 12:27:15;;;;;;;97.70;60.95;;;23.80;40.00;;;;;;5048991;28;45391;-53
2021/01/10 12:29:41;;;;;;;82.63;49.97;;;23.70;37.70;;;;;;5048295;28;45452;-53
2021/01/10 12:32:06;;;;;;;68.05;46.42;;;23.60;36.00;;;;;;5037009;28;45411;-54
2021/01/10 12:34:32;;;;;;;71.70;44.20;;;23.50;35.00;;;;;;5067434;28;46269;-53
2021/01/10 12:36:58;;;;;;;63.60;39.10;;;23.40;35.80;;;;;;5051375;28;45479;-53
2021/01/10 12:39:24;;;;;;;68.15;41.38;;;23.30;35.30;;;;;;5051440;28;45487;-53